sensor_id;sensor_type;location;lat;lon;timestamp;P1;durP1;ratioP1;P2;durP2;ratioP2
21337;SDS011;72379;50.880;4.350;2024-02-26T00:02:24;3.57;;;1.70;;
21337;SDS011;72379;50.880;4.350;2024-02-26T00:04:56;3.47;;;1.83;;
21337;SDS011;72379;50.880;4.350;2024-02-26T00:07:22;4.00;;;2.23;;
21337;SDS011;72379;50.880;4.350;2024-02-26T00:09:48;7.17;;;2.40;;
21337;SDS011;72379;50.880;4.350;2024-02-26T00:12:14;4.60;;;2.33;;
21337;SDS011;72379;50.880;4.350;2024-02-26T00:14:40;4.17;;;2.40;;
21337;SDS011;72379;50.880;4.350;2024-02-26T00:17:06;4.47;;;1.97;;
21337;SDS011;72379;50.880;4.350;2024-02-26T00:19:32;3.13;;;1.70;;
21337;SDS011;72379;50.880;4.350;2024-02-26T00:22:00;3.90;;;2.00;;
21337;SDS011;72379;50.880;4.350;2024-02-26T00:24:26;2.50;;;1.97;;
21337;SDS011;72379;50.880;4.350;2024-02-26T00:26:52;1.50;;;1.13;;
21337;SDS011;72379;50.880;4.350;2024-02-26T00:29:19;5.27;;;2.03;;
21337;SDS011;72379;50.880;4.350;2024-02-26T00:31:45;2.93;;;1.80;;
21337;SDS011;72379;50.880;4.350;2024-02-26T00:34:11;4.67;;;1.83;;
21337;SDS011;72379;50.880;4.350;2024-02-26T00:36:37;4.83;;;2.00;;
21337;SDS011;72379;50.880;4.350;2024-02-26T00:39:03;5.67;;;1.90;;
21337;SDS011;72379;50.880;4.350;2024-02-26T00:41:29;4.40;;;2.10;;
21337;SDS011;72379;50.880;4.350;2024-02-26T00:43:55;5.30;;;2.37;;
21337;SDS011;72379;50.880;4.350;2024-02-26T00:46:20;5.83;;;1.87;;
21337;SDS011;72379;50.880;4.350;2024-02-26T00:48:46;3.47;;;2.00;;
21337;SDS011;72379;50.880;4.350;2024-02-26T00:51:12;3.07;;;1.60;;
21337;SDS011;72379;50.880;4.350;2024-02-26T00:53:38;2.43;;;1.80;;
21337;SDS011;72379;50.880;4.350;2024-02-26T00:56:06;2.60;;;1.70;;
21337;SDS011;72379;50.880;4.350;2024-02-26T00:58:32;4.53;;;1.90;;
21337;SDS011;72379;50.880;4.350;2024-02-26T01:00:58;3.63;;;1.93;;
21337;SDS011;72379;50.880;4.350;2024-02-26T01:03:24;3.20;;;1.50;;
21337;SDS011;72379;50.880;4.350;2024-02-26T01:05:50;2.57;;;1.53;;
21337;SDS011;72379;50.880;4.350;2024-02-26T01:08:16;2.77;;;1.57;;
21337;SDS011;72379;50.880;4.350;2024-02-26T01:10:42;4.00;;;1.80;;
21337;SDS011;72379;50.880;4.350;2024-02-26T01:13:08;5.77;;;2.07;;
21337;SDS011;72379;50.880;4.350;2024-02-26T01:15:34;2.43;;;1.40;;
21337;SDS011;72379;50.880;4.350;2024-02-26T01:18:00;5.07;;;2.17;;
21337;SDS011;72379;50.880;4.350;2024-02-26T01:20:26;4.00;;;1.80;;
21337;SDS011;72379;50.880;4.350;2024-02-26T01:22:52;3.07;;;1.93;;
21337;SDS011;72379;50.880;4.350;2024-02-26T01:25:18;0.80;;;0.73;;
21337;SDS011;72379;50.880;4.350;2024-02-26T01:27:44;3.60;;;1.77;;
21337;SDS011;72379;50.880;4.350;2024-02-26T01:30:10;3.67;;;1.80;;
21337;SDS011;72379;50.880;4.350;2024-02-26T01:32:36;2.73;;;1.70;;
21337;SDS011;72379;50.880;4.350;2024-02-26T01:35:02;1.83;;;1.50;;
21337;SDS011;72379;50.880;4.350;2024-02-26T01:37:36;3.23;;;1.87;;
21337;SDS011;72379;50.880;4.350;2024-02-26T01:40:02;4.43;;;1.17;;
21337;SDS011;72379;50.880;4.350;2024-02-26T01:42:33;4.13;;;1.80;;
21337;SDS011;72379;50.880;4.350;2024-02-26T01:44:59;4.73;;;1.83;;
21337;SDS011;72379;50.880;4.350;2024-02-26T01:47:26;5.17;;;1.87;;
21337;SDS011;72379;50.880;4.350;2024-02-26T01:49:53;2.53;;;1.60;;
21337;SDS011;72379;50.880;4.350;2024-02-26T01:52:19;1.63;;;1.53;;
21337;SDS011;72379;50.880;4.350;2024-02-26T01:54:48;4.43;;;1.53;;
21337;SDS011;72379;50.880;4.350;2024-02-26T01:57:15;3.73;;;1.90;;
21337;SDS011;72379;50.880;4.350;2024-02-26T01:59:41;1.83;;;1.13;;
21337;SDS011;72379;50.880;4.350;2024-02-26T02:02:08;3.53;;;1.60;;
21337;SDS011;72379;50.880;4.350;2024-02-26T02:04:36;3.00;;;1.27;;
21337;SDS011;72379;50.880;4.350;2024-02-26T02:07:03;4.80;;;1.77;;
21337;SDS011;72379;50.880;4.350;2024-02-26T02:09:30;2.13;;;0.90;;
21337;SDS011;72379;50.880;4.350;2024-02-26T02:11:56;4.40;;;1.00;;
21337;SDS011;72379;50.880;4.350;2024-02-26T02:14:23;2.73;;;1.50;;
21337;SDS011;72379;50.880;4.350;2024-02-26T02:16:49;3.37;;;1.57;;
21337;SDS011;72379;50.880;4.350;2024-02-26T02:19:16;1.83;;;1.43;;
21337;SDS011;72379;50.880;4.350;2024-02-26T02:21:42;5.03;;;1.67;;
21337;SDS011;72379;50.880;4.350;2024-02-26T02:24:08;4.43;;;1.13;;
21337;SDS011;72379;50.880;4.350;2024-02-26T02:26:34;8.27;;;1.40;;
21337;SDS011;72379;50.880;4.350;2024-02-26T02:29:00;3.70;;;1.40;;
21337;SDS011;72379;50.880;4.350;2024-02-26T02:31:26;1.80;;;1.40;;
21337;SDS011;72379;50.880;4.350;2024-02-26T02:33:52;4.63;;;1.47;;
21337;SDS011;72379;50.880;4.350;2024-02-26T02:36:18;2.67;;;1.50;;
21337;SDS011;72379;50.880;4.350;2024-02-26T02:38:50;3.20;;;1.70;;
21337;SDS011;72379;50.880;4.350;2024-02-26T02:41:16;3.77;;;1.33;;
21337;SDS011;72379;50.880;4.350;2024-02-26T02:43:42;2.07;;;1.53;;
21337;SDS011;72379;50.880;4.350;2024-02-26T02:46:08;3.57;;;1.57;;
21337;SDS011;72379;50.880;4.350;2024-02-26T02:48:38;1.67;;;1.00;;
21337;SDS011;72379;50.880;4.350;2024-02-26T02:51:04;3.17;;;1.43;;
21337;SDS011;72379;50.880;4.350;2024-02-26T02:53:30;2.13;;;1.30;;
21337;SDS011;72379;50.880;4.350;2024-02-26T02:55:56;3.67;;;1.40;;
21337;SDS011;72379;50.880;4.350;2024-02-26T02:58:22;1.43;;;1.03;;
21337;SDS011;72379;50.880;4.350;2024-02-26T03:00:49;2.23;;;1.43;;
21337;SDS011;72379;50.880;4.350;2024-02-26T03:03:14;1.63;;;1.37;;
21337;SDS011;72379;50.880;4.350;2024-02-26T03:05:40;2.67;;;1.37;;
21337;SDS011;72379;50.880;4.350;2024-02-26T03:08:06;2.57;;;1.73;;
21337;SDS011;72379;50.880;4.350;2024-02-26T03:10:32;4.07;;;1.40;;
21337;SDS011;72379;50.880;4.350;2024-02-26T03:12:58;2.53;;;1.60;;
21337;SDS011;72379;50.880;4.350;2024-02-26T03:15:24;3.53;;;1.47;;
21337;SDS011;72379;50.880;4.350;2024-02-26T03:17:50;3.33;;;1.80;;
21337;SDS011;72379;50.880;4.350;2024-02-26T03:20:17;4.27;;;1.40;;
21337;SDS011;72379;50.880;4.350;2024-02-26T03:22:44;4.07;;;1.53;;
21337;SDS011;72379;50.880;4.350;2024-02-26T03:25:11;4.17;;;1.63;;
21337;SDS011;72379;50.880;4.350;2024-02-26T03:27:37;2.10;;;1.60;;
21337;SDS011;72379;50.880;4.350;2024-02-26T03:30:03;4.60;;;1.70;;
21337;SDS011;72379;50.880;4.350;2024-02-26T03:32:29;2.10;;;1.43;;
21337;SDS011;72379;50.880;4.350;2024-02-26T03:34:55;2.17;;;1.57;;
21337;SDS011;72379;50.880;4.350;2024-02-26T03:37:21;2.23;;;1.70;;
21337;SDS011;72379;50.880;4.350;2024-02-26T03:39:48;2.33;;;1.20;;
21337;SDS011;72379;50.880;4.350;2024-02-26T03:42:13;2.20;;;1.33;;
21337;SDS011;72379;50.880;4.350;2024-02-26T03:44:41;4.40;;;1.93;;
21337;SDS011;72379;50.880;4.350;2024-02-26T03:47:07;2.60;;;2.03;;
21337;SDS011;72379;50.880;4.350;2024-02-26T03:49:33;2.70;;;1.80;;
21337;SDS011;72379;50.880;4.350;2024-02-26T03:51:59;0.93;;;0.70;;
21337;SDS011;72379;50.880;4.350;2024-02-26T03:54:25;4.17;;;2.00;;
21337;SDS011;72379;50.880;4.350;2024-02-26T03:56:51;2.80;;;1.30;;
21337;SDS011;72379;50.880;4.350;2024-02-26T03:59:17;4.03;;;2.30;;
21337;SDS011;72379;50.880;4.350;2024-02-26T04:01:47;3.23;;;2.40;;
21337;SDS011;72379;50.880;4.350;2024-02-26T04:04:13;3.97;;;2.37;;
21337;SDS011;72379;50.880;4.350;2024-02-26T04:06:38;4.60;;;3.00;;
21337;SDS011;72379;50.880;4.350;2024-02-26T04:09:04;4.07;;;2.70;;
21337;SDS011;72379;50.880;4.350;2024-02-26T04:11:30;4.43;;;2.70;;
21337;SDS011;72379;50.880;4.350;2024-02-26T04:13:56;7.30;;;3.60;;
21337;SDS011;72379;50.880;4.350;2024-02-26T04:16:22;7.53;;;3.60;;
21337;SDS011;72379;50.880;4.350;2024-02-26T04:18:48;3.83;;;2.80;;
21337;SDS011;72379;50.880;4.350;2024-02-26T04:21:15;6.47;;;4.50;;
21337;SDS011;72379;50.880;4.350;2024-02-26T04:23:41;4.23;;;3.17;;
21337;SDS011;72379;50.880;4.350;2024-02-26T04:26:06;8.93;;;4.27;;
21337;SDS011;72379;50.880;4.350;2024-02-26T04:28:32;7.97;;;5.00;;
21337;SDS011;72379;50.880;4.350;2024-02-26T04:30:57;7.57;;;5.03;;
21337;SDS011;72379;50.880;4.350;2024-02-26T04:33:23;7.60;;;5.13;;
21337;SDS011;72379;50.880;4.350;2024-02-26T04:35:49;10.17;;;5.80;;
21337;SDS011;72379;50.880;4.350;2024-02-26T04:38:15;7.87;;;4.83;;
21337;SDS011;72379;50.880;4.350;2024-02-26T04:40:41;6.33;;;4.87;;
21337;SDS011;72379;50.880;4.350;2024-02-26T04:43:07;6.57;;;4.77;;
21337;SDS011;72379;50.880;4.350;2024-02-26T04:45:34;11.20;;;5.53;;
21337;SDS011;72379;50.880;4.350;2024-02-26T04:48:00;8.10;;;4.47;;
21337;SDS011;72379;50.880;4.350;2024-02-26T04:50:26;8.87;;;5.30;;
21337;SDS011;72379;50.880;4.350;2024-02-26T04:52:52;9.80;;;5.93;;
21337;SDS011;72379;50.880;4.350;2024-02-26T04:55:18;12.27;;;6.07;;
21337;SDS011;72379;50.880;4.350;2024-02-26T04:57:44;9.67;;;6.17;;
21337;SDS011;72379;50.880;4.350;2024-02-26T05:00:10;11.77;;;6.90;;
21337;SDS011;72379;50.880;4.350;2024-02-26T05:02:36;12.77;;;6.80;;
21337;SDS011;72379;50.880;4.350;2024-02-26T05:05:06;7.87;;;5.10;;
21337;SDS011;72379;50.880;4.350;2024-02-26T05:07:33;9.43;;;6.67;;
21337;SDS011;72379;50.880;4.350;2024-02-26T05:09:59;10.27;;;6.80;;
21337;SDS011;72379;50.880;4.350;2024-02-26T05:12:25;10.73;;;6.80;;
21337;SDS011;72379;50.880;4.350;2024-02-26T05:14:51;10.40;;;5.73;;
21337;SDS011;72379;50.880;4.350;2024-02-26T05:17:17;11.53;;;8.10;;
21337;SDS011;72379;50.880;4.350;2024-02-26T05:19:42;4.47;;;3.20;;
21337;SDS011;72379;50.880;4.350;2024-02-26T05:22:08;14.70;;;8.13;;
21337;SDS011;72379;50.880;4.350;2024-02-26T05:24:34;14.03;;;7.13;;
21337;SDS011;72379;50.880;4.350;2024-02-26T05:27:04;15.77;;;9.37;;
21337;SDS011;72379;50.880;4.350;2024-02-26T05:29:29;17.27;;;10.20;;
21337;SDS011;72379;50.880;4.350;2024-02-26T05:31:56;16.47;;;9.73;;
21337;SDS011;72379;50.880;4.350;2024-02-26T05:34:23;13.70;;;8.70;;
21337;SDS011;72379;50.880;4.350;2024-02-26T05:36:48;11.50;;;6.67;;
21337;SDS011;72379;50.880;4.350;2024-02-26T05:39:14;17.23;;;10.53;;
21337;SDS011;72379;50.880;4.350;2024-02-26T05:41:41;19.13;;;9.77;;
21337;SDS011;72379;50.880;4.350;2024-02-26T05:44:08;18.67;;;11.23;;
21337;SDS011;72379;50.880;4.350;2024-02-26T05:46:35;19.80;;;12.90;;
21337;SDS011;72379;50.880;4.350;2024-02-26T05:49:01;19.30;;;12.17;;
21337;SDS011;72379;50.880;4.350;2024-02-26T05:51:27;20.83;;;12.80;;
21337;SDS011;72379;50.880;4.350;2024-02-26T05:53:53;22.87;;;13.37;;
21337;SDS011;72379;50.880;4.350;2024-02-26T05:56:20;19.97;;;11.10;;
21337;SDS011;72379;50.880;4.350;2024-02-26T05:58:48;20.10;;;11.77;;
21337;SDS011;72379;50.880;4.350;2024-02-26T06:01:15;16.37;;;9.87;;
21337;SDS011;72379;50.880;4.350;2024-02-26T06:03:42;14.03;;;9.47;;
21337;SDS011;72379;50.880;4.350;2024-02-26T06:06:08;20.00;;;11.60;;
21337;SDS011;72379;50.880;4.350;2024-02-26T06:08:34;12.30;;;8.63;;
21337;SDS011;72379;50.880;4.350;2024-02-26T06:11:04;22.20;;;12.23;;
21337;SDS011;72379;50.880;4.350;2024-02-26T06:13:31;19.23;;;12.43;;
21337;SDS011;72379;50.880;4.350;2024-02-26T06:15:56;21.60;;;13.13;;
21337;SDS011;72379;50.880;4.350;2024-02-26T06:18:22;20.50;;;13.27;;
21337;SDS011;72379;50.880;4.350;2024-02-26T06:20:48;9.13;;;6.07;;
21337;SDS011;72379;50.880;4.350;2024-02-26T06:23:14;16.17;;;10.20;;
21337;SDS011;72379;50.880;4.350;2024-02-26T06:25:40;20.20;;;12.87;;
21337;SDS011;72379;50.880;4.350;2024-02-26T06:28:07;19.53;;;11.50;;
21337;SDS011;72379;50.880;4.350;2024-02-26T06:30:34;7.37;;;4.70;;
21337;SDS011;72379;50.880;4.350;2024-02-26T06:33:00;14.00;;;10.53;;
21337;SDS011;72379;50.880;4.350;2024-02-26T06:35:27;21.43;;;12.83;;
21337;SDS011;72379;50.880;4.350;2024-02-26T06:37:52;11.03;;;7.20;;
21337;SDS011;72379;50.880;4.350;2024-02-26T06:40:19;13.67;;;9.87;;
21337;SDS011;72379;50.880;4.350;2024-02-26T06:42:45;12.93;;;9.07;;
21337;SDS011;72379;50.880;4.350;2024-02-26T06:45:11;13.50;;;10.33;;
21337;SDS011;72379;50.880;4.350;2024-02-26T06:47:37;16.57;;;11.90;;
21337;SDS011;72379;50.880;4.350;2024-02-26T06:50:03;15.83;;;11.07;;
21337;SDS011;72379;50.880;4.350;2024-02-26T06:52:30;16.53;;;12.30;;
21337;SDS011;72379;50.880;4.350;2024-02-26T06:54:57;14.30;;;8.73;;
21337;SDS011;72379;50.880;4.350;2024-02-26T06:57:23;16.67;;;12.93;;
21337;SDS011;72379;50.880;4.350;2024-02-26T06:59:50;15.87;;;10.30;;
21337;SDS011;72379;50.880;4.350;2024-02-26T07:05:01;18.13;;;11.57;;
21337;SDS011;72379;50.880;4.350;2024-02-26T07:07:28;18.53;;;12.23;;
21337;SDS011;72379;50.880;4.350;2024-02-26T07:09:54;16.80;;;12.60;;
21337;SDS011;72379;50.880;4.350;2024-02-26T07:12:20;18.03;;;12.40;;
21337;SDS011;72379;50.880;4.350;2024-02-26T07:14:47;13.60;;;9.77;;
21337;SDS011;72379;50.880;4.350;2024-02-26T07:17:13;20.47;;;12.87;;
21337;SDS011;72379;50.880;4.350;2024-02-26T07:19:41;17.70;;;13.17;;
21337;SDS011;72379;50.880;4.350;2024-02-26T07:22:07;15.03;;;10.17;;
21337;SDS011;72379;50.880;4.350;2024-02-26T07:24:33;17.47;;;11.40;;
21337;SDS011;72379;50.880;4.350;2024-02-26T07:30:03;18.50;;;11.93;;
21337;SDS011;72379;50.880;4.350;2024-02-26T07:32:29;19.57;;;13.83;;
21337;SDS011;72379;50.880;4.350;2024-02-26T07:34:55;16.47;;;11.20;;
21337;SDS011;72379;50.880;4.350;2024-02-26T07:37:27;19.87;;;12.73;;
21337;SDS011;72379;50.880;4.350;2024-02-26T07:39:52;20.40;;;13.40;;
21337;SDS011;72379;50.880;4.350;2024-02-26T07:42:37;14.80;;;9.00;;
21337;SDS011;72379;50.880;4.350;2024-02-26T07:45:04;14.83;;;9.80;;
21337;SDS011;72379;50.880;4.350;2024-02-26T07:47:30;11.60;;;7.17;;
21337;SDS011;72379;50.880;4.350;2024-02-26T07:49:57;18.07;;;11.07;;
21337;SDS011;72379;50.880;4.350;2024-02-26T07:52:23;16.17;;;11.43;;
21337;SDS011;72379;50.880;4.350;2024-02-26T07:54:49;16.60;;;12.40;;
21337;SDS011;72379;50.880;4.350;2024-02-26T07:57:16;18.40;;;11.67;;
21337;SDS011;72379;50.880;4.350;2024-02-26T07:59:42;22.73;;;10.67;;
21337;SDS011;72379;50.880;4.350;2024-02-26T08:02:10;21.23;;;12.67;;
21337;SDS011;72379;50.880;4.350;2024-02-26T08:04:36;13.27;;;8.97;;
21337;SDS011;72379;50.880;4.350;2024-02-26T08:07:02;15.87;;;10.90;;
21337;SDS011;72379;50.880;4.350;2024-02-26T08:09:28;14.00;;;10.03;;
21337;SDS011;72379;50.880;4.350;2024-02-26T08:11:54;15.30;;;11.50;;
21337;SDS011;72379;50.880;4.350;2024-02-26T08:14:20;16.67;;;10.80;;
21337;SDS011;72379;50.880;4.350;2024-02-26T08:16:46;13.43;;;9.10;;
21337;SDS011;72379;50.880;4.350;2024-02-26T08:19:12;16.40;;;9.90;;
21337;SDS011;72379;50.880;4.350;2024-02-26T08:21:40;7.90;;;4.80;;
21337;SDS011;72379;50.880;4.350;2024-02-26T08:24:06;11.50;;;7.70;;
21337;SDS011;72379;50.880;4.350;2024-02-26T08:26:32;13.23;;;9.73;;
21337;SDS011;72379;50.880;4.350;2024-02-26T08:28:58;14.03;;;9.20;;
21337;SDS011;72379;50.880;4.350;2024-02-26T08:31:23;11.60;;;8.07;;
21337;SDS011;72379;50.880;4.350;2024-02-26T08:33:49;8.93;;;6.30;;
21337;SDS011;72379;50.880;4.350;2024-02-26T08:36:15;15.63;;;10.90;;
21337;SDS011;72379;50.880;4.350;2024-02-26T08:38:41;14.70;;;11.00;;
21337;SDS011;72379;50.880;4.350;2024-02-26T08:41:07;12.70;;;8.00;;
21337;SDS011;72379;50.880;4.350;2024-02-26T08:43:33;13.27;;;9.03;;
21337;SDS011;72379;50.880;4.350;2024-02-26T08:45:59;13.33;;;9.30;;
21337;SDS011;72379;50.880;4.350;2024-02-26T08:48:25;12.93;;;9.53;;
21337;SDS011;72379;50.880;4.350;2024-02-26T08:50:51;11.43;;;8.00;;
21337;SDS011;72379;50.880;4.350;2024-02-26T08:53:18;11.67;;;9.23;;
21337;SDS011;72379;50.880;4.350;2024-02-26T08:55:44;12.33;;;9.03;;
21337;SDS011;72379;50.880;4.350;2024-02-26T08:58:10;11.00;;;7.37;;
21337;SDS011;72379;50.880;4.350;2024-02-26T09:00:35;10.20;;;7.37;;
21337;SDS011;72379;50.880;4.350;2024-02-26T09:03:01;12.43;;;9.40;;
21337;SDS011;72379;50.880;4.350;2024-02-26T09:05:27;8.17;;;5.67;;
21337;SDS011;72379;50.880;4.350;2024-02-26T09:07:53;13.37;;;9.13;;
21337;SDS011;72379;50.880;4.350;2024-02-26T09:10:19;13.77;;;8.93;;
21337;SDS011;72379;50.880;4.350;2024-02-26T09:12:45;14.07;;;9.90;;
21337;SDS011;72379;50.880;4.350;2024-02-26T09:15:11;8.37;;;5.83;;
21337;SDS011;72379;50.880;4.350;2024-02-26T09:17:38;14.17;;;8.27;;
21337;SDS011;72379;50.880;4.350;2024-02-26T09:20:04;10.43;;;8.27;;
21337;SDS011;72379;50.880;4.350;2024-02-26T09:22:31;7.40;;;4.27;;
21337;SDS011;72379;50.880;4.350;2024-02-26T09:24:57;14.23;;;8.97;;
21337;SDS011;72379;50.880;4.350;2024-02-26T09:27:23;12.80;;;8.40;;
21337;SDS011;72379;50.880;4.350;2024-02-26T09:29:49;11.97;;;8.27;;
21337;SDS011;72379;50.880;4.350;2024-02-26T09:32:14;13.33;;;9.20;;
21337;SDS011;72379;50.880;4.350;2024-02-26T09:34:41;17.20;;;8.87;;
21337;SDS011;72379;50.880;4.350;2024-02-26T09:37:07;9.97;;;6.90;;
21337;SDS011;72379;50.880;4.350;2024-02-26T09:39:32;11.83;;;8.93;;
21337;SDS011;72379;50.880;4.350;2024-02-26T09:41:59;12.60;;;8.30;;
21337;SDS011;72379;50.880;4.350;2024-02-26T09:44:29;14.87;;;9.30;;
21337;SDS011;72379;50.880;4.350;2024-02-26T09:46:55;12.43;;;8.93;;
21337;SDS011;72379;50.880;4.350;2024-02-26T09:49:22;12.80;;;7.53;;
21337;SDS011;72379;50.880;4.350;2024-02-26T09:51:49;12.63;;;9.10;;
21337;SDS011;72379;50.880;4.350;2024-02-26T09:54:17;15.03;;;8.07;;
21337;SDS011;72379;50.880;4.350;2024-02-26T09:56:43;13.37;;;9.00;;
21337;SDS011;72379;50.880;4.350;2024-02-26T09:59:14;11.57;;;8.83;;
21337;SDS011;72379;50.880;4.350;2024-02-26T10:01:42;11.10;;;7.40;;
21337;SDS011;72379;50.880;4.350;2024-02-26T10:04:10;13.63;;;8.37;;
21337;SDS011;72379;50.880;4.350;2024-02-26T10:06:37;13.37;;;8.77;;
21337;SDS011;72379;50.880;4.350;2024-02-26T10:09:03;7.90;;;6.30;;
21337;SDS011;72379;50.880;4.350;2024-02-26T10:11:32;13.20;;;9.13;;
21337;SDS011;72379;50.880;4.350;2024-02-26T10:13:58;10.67;;;6.40;;
21337;SDS011;72379;50.880;4.350;2024-02-26T10:16:27;10.70;;;7.67;;
21337;SDS011;72379;50.880;4.350;2024-02-26T10:18:53;12.70;;;8.60;;
21337;SDS011;72379;50.880;4.350;2024-02-26T10:21:20;10.40;;;6.97;;
21337;SDS011;72379;50.880;4.350;2024-02-26T10:23:46;9.57;;;6.43;;
21337;SDS011;72379;50.880;4.350;2024-02-26T10:26:13;7.93;;;5.80;;
21337;SDS011;72379;50.880;4.350;2024-02-26T10:28:41;8.97;;;6.97;;
21337;SDS011;72379;50.880;4.350;2024-02-26T10:31:07;10.73;;;7.73;;
21337;SDS011;72379;50.880;4.350;2024-02-26T10:33:34;9.43;;;5.90;;
21337;SDS011;72379;50.880;4.350;2024-02-26T10:36:04;12.93;;;9.17;;
21337;SDS011;72379;50.880;4.350;2024-02-26T10:38:30;12.13;;;7.57;;
21337;SDS011;72379;50.880;4.350;2024-02-26T10:41:01;11.87;;;7.97;;
21337;SDS011;72379;50.880;4.350;2024-02-26T10:43:28;13.07;;;7.90;;
21337;SDS011;72379;50.880;4.350;2024-02-26T10:45:54;11.63;;;7.30;;
21337;SDS011;72379;50.880;4.350;2024-02-26T10:51:12;11.50;;;8.27;;
21337;SDS011;72379;50.880;4.350;2024-02-26T10:53:39;11.10;;;7.30;;
21337;SDS011;72379;50.880;4.350;2024-02-26T10:56:07;10.17;;;7.07;;
21337;SDS011;72379;50.880;4.350;2024-02-26T10:58:35;9.43;;;4.60;;
21337;SDS011;72379;50.880;4.350;2024-02-26T11:01:01;9.60;;;6.47;;
21337;SDS011;72379;50.880;4.350;2024-02-26T11:03:30;9.17;;;6.37;;
21337;SDS011;72379;50.880;4.350;2024-02-26T11:05:59;9.90;;;5.90;;
21337;SDS011;72379;50.880;4.350;2024-02-26T11:08:26;8.20;;;5.40;;
21337;SDS011;72379;50.880;4.350;2024-02-26T11:10:54;9.10;;;6.10;;
21337;SDS011;72379;50.880;4.350;2024-02-26T11:13:21;7.57;;;5.23;;
21337;SDS011;72379;50.880;4.350;2024-02-26T11:15:47;7.07;;;5.27;;
21337;SDS011;72379;50.880;4.350;2024-02-26T11:18:14;6.17;;;4.97;;
21337;SDS011;72379;50.880;4.350;2024-02-26T11:20:41;5.90;;;4.43;;
21337;SDS011;72379;50.880;4.350;2024-02-26T11:23:08;4.90;;;4.00;;
21337;SDS011;72379;50.880;4.350;2024-02-26T11:25:37;4.03;;;3.63;;
21337;SDS011;72379;50.880;4.350;2024-02-26T11:28:05;3.63;;;2.67;;
21337;SDS011;72379;50.880;4.350;2024-02-26T11:30:35;3.73;;;3.33;;
21337;SDS011;72379;50.880;4.350;2024-02-26T11:33:06;3.37;;;2.90;;
21337;SDS011;72379;50.880;4.350;2024-02-26T11:35:33;4.47;;;3.07;;
21337;SDS011;72379;50.880;4.350;2024-02-26T11:38:01;4.63;;;3.83;;
21337;SDS011;72379;50.880;4.350;2024-02-26T11:40:28;4.30;;;3.87;;
21337;SDS011;72379;50.880;4.350;2024-02-26T11:42:56;6.33;;;3.57;;
21337;SDS011;72379;50.880;4.350;2024-02-26T11:50:40;6.90;;;4.00;;
21337;SDS011;72379;50.880;4.350;2024-02-26T11:58:42;5.37;;;4.07;;
21337;SDS011;72379;50.880;4.350;2024-02-26T12:04:07;7.40;;;4.47;;
21337;SDS011;72379;50.880;4.350;2024-02-26T12:06:40;6.87;;;5.20;;
21337;SDS011;72379;50.880;4.350;2024-02-26T12:09:11;7.57;;;5.20;;
21337;SDS011;72379;50.880;4.350;2024-02-26T12:11:38;5.97;;;4.33;;
21337;SDS011;72379;50.880;4.350;2024-02-26T12:14:05;6.63;;;4.80;;
21337;SDS011;72379;50.880;4.350;2024-02-26T12:16:39;8.07;;;5.23;;
21337;SDS011;72379;50.880;4.350;2024-02-26T12:19:08;6.93;;;5.33;;
21337;SDS011;72379;50.880;4.350;2024-02-26T12:21:35;7.70;;;5.43;;
21337;SDS011;72379;50.880;4.350;2024-02-26T12:24:11;6.60;;;5.07;;
21337;SDS011;72379;50.880;4.350;2024-02-26T12:26:37;7.43;;;5.17;;
21337;SDS011;72379;50.880;4.350;2024-02-26T12:29:05;5.07;;;3.73;;
21337;SDS011;72379;50.880;4.350;2024-02-26T12:31:34;11.10;;;5.93;;
21337;SDS011;72379;50.880;4.350;2024-02-26T12:34:04;7.60;;;5.23;;
21337;SDS011;72379;50.880;4.350;2024-02-26T12:36:30;9.50;;;7.13;;
21337;SDS011;72379;50.880;4.350;2024-02-26T12:38:57;6.50;;;4.90;;
21337;SDS011;72379;50.880;4.350;2024-02-26T12:41:23;8.33;;;6.63;;
21337;SDS011;72379;50.880;4.350;2024-02-26T12:43:49;10.43;;;7.03;;
21337;SDS011;72379;50.880;4.350;2024-02-26T12:46:15;10.63;;;6.10;;
21337;SDS011;72379;50.880;4.350;2024-02-26T12:48:44;10.77;;;7.50;;
21337;SDS011;72379;50.880;4.350;2024-02-26T12:51:12;10.60;;;7.27;;
21337;SDS011;72379;50.880;4.350;2024-02-26T12:53:40;12.70;;;7.17;;
21337;SDS011;72379;50.880;4.350;2024-02-26T12:56:09;9.50;;;6.83;;
21337;SDS011;72379;50.880;4.350;2024-02-26T12:58:37;9.73;;;6.77;;
21337;SDS011;72379;50.880;4.350;2024-02-26T13:01:05;12.53;;;8.37;;
21337;SDS011;72379;50.880;4.350;2024-02-26T13:03:40;9.50;;;6.70;;
21337;SDS011;72379;50.880;4.350;2024-02-26T13:06:07;10.10;;;7.67;;
21337;SDS011;72379;50.880;4.350;2024-02-26T13:08:33;10.13;;;6.27;;
21337;SDS011;72379;50.880;4.350;2024-02-26T13:10:59;12.27;;;7.47;;
21337;SDS011;72379;50.880;4.350;2024-02-26T13:13:25;9.53;;;5.60;;
21337;SDS011;72379;50.880;4.350;2024-02-26T13:16:01;9.03;;;6.77;;
21337;SDS011;72379;50.880;4.350;2024-02-26T13:18:27;5.67;;;3.47;;
21337;SDS011;72379;50.880;4.350;2024-02-26T13:21:05;8.57;;;5.40;;
21337;SDS011;72379;50.880;4.350;2024-02-26T13:23:31;8.57;;;6.00;;
21337;SDS011;72379;50.880;4.350;2024-02-26T13:25:57;7.90;;;4.97;;
21337;SDS011;72379;50.880;4.350;2024-02-26T13:28:23;11.37;;;6.67;;
21337;SDS011;72379;50.880;4.350;2024-02-26T13:30:53;8.33;;;5.90;;
21337;SDS011;72379;50.880;4.350;2024-02-26T13:33:22;8.90;;;7.00;;
21337;SDS011;72379;50.880;4.350;2024-02-26T13:35:51;9.13;;;6.80;;
21337;SDS011;72379;50.880;4.350;2024-02-26T13:38:18;10.23;;;6.87;;
21337;SDS011;72379;50.880;4.350;2024-02-26T13:40:44;8.93;;;6.80;;
21337;SDS011;72379;50.880;4.350;2024-02-26T13:43:10;8.87;;;6.00;;
21337;SDS011;72379;50.880;4.350;2024-02-26T13:45:37;9.70;;;7.00;;
21337;SDS011;72379;50.880;4.350;2024-02-26T13:48:07;9.90;;;6.67;;
21337;SDS011;72379;50.880;4.350;2024-02-26T13:50:35;10.77;;;6.93;;
21337;SDS011;72379;50.880;4.350;2024-02-26T13:53:01;10.80;;;7.33;;
21337;SDS011;72379;50.880;4.350;2024-02-26T13:55:28;7.93;;;4.70;;
21337;SDS011;72379;50.880;4.350;2024-02-26T13:57:55;14.10;;;8.20;;
21337;SDS011;72379;50.880;4.350;2024-02-26T14:00:22;10.83;;;7.70;;
21337;SDS011;72379;50.880;4.350;2024-02-26T14:02:51;12.60;;;7.70;;
21337;SDS011;72379;50.880;4.350;2024-02-26T14:05:17;12.00;;;8.37;;
21337;SDS011;72379;50.880;4.350;2024-02-26T14:07:44;10.70;;;7.17;;
21337;SDS011;72379;50.880;4.350;2024-02-26T14:10:11;11.60;;;7.37;;
21337;SDS011;72379;50.880;4.350;2024-02-26T14:12:38;8.57;;;6.50;;
21337;SDS011;72379;50.880;4.350;2024-02-26T14:15:07;14.23;;;8.43;;
21337;SDS011;72379;50.880;4.350;2024-02-26T14:17:33;14.13;;;9.40;;
21337;SDS011;72379;50.880;4.350;2024-02-26T14:19:59;10.53;;;6.33;;
21337;SDS011;72379;50.880;4.350;2024-02-26T14:22:25;15.53;;;8.40;;
21337;SDS011;72379;50.880;4.350;2024-02-26T14:24:56;14.60;;;9.53;;
21337;SDS011;72379;50.880;4.350;2024-02-26T14:27:22;11.90;;;7.77;;
21337;SDS011;72379;50.880;4.350;2024-02-26T14:29:48;16.17;;;9.10;;
21337;SDS011;72379;50.880;4.350;2024-02-26T14:32:14;13.03;;;8.90;;
21337;SDS011;72379;50.880;4.350;2024-02-26T14:34:41;13.97;;;8.97;;
21337;SDS011;72379;50.880;4.350;2024-02-26T14:37:06;11.57;;;7.13;;
21337;SDS011;72379;50.880;4.350;2024-02-26T14:39:32;14.03;;;7.70;;
21337;SDS011;72379;50.880;4.350;2024-02-26T14:41:58;15.23;;;9.10;;
21337;SDS011;72379;50.880;4.350;2024-02-26T14:44:31;16.30;;;9.57;;
21337;SDS011;72379;50.880;4.350;2024-02-26T14:46:57;11.30;;;6.83;;
21337;SDS011;72379;50.880;4.350;2024-02-26T14:49:24;14.53;;;9.33;;
21337;SDS011;72379;50.880;4.350;2024-02-26T14:51:50;13.70;;;7.70;;
21337;SDS011;72379;50.880;4.350;2024-02-26T14:54:17;14.27;;;7.63;;
21337;SDS011;72379;50.880;4.350;2024-02-26T14:56:43;14.23;;;8.30;;
21337;SDS011;72379;50.880;4.350;2024-02-26T14:59:09;14.53;;;8.77;;
21337;SDS011;72379;50.880;4.350;2024-02-26T15:01:35;15.77;;;8.23;;